Time;durP1;ratioP1;P1;durP2;ratioP2;P2;SDS_P1;SDS_P2;PMS_P1;PMS_P2;Temp;Humidity;BMP_temperature;BMP_pressure;BME280_temperature;BME280_humidity;BME280_pressure;Samples;Min_cycle;Max_cycle;Signal;HPM_P1;HPM_P2
2024/04/16 00:00:40;;;;;;;11.88;6.47;;;;;;;;;;6003876;27;20344;-74
2024/04/16 00:03:32;;;;;;;9.23;6.78;;;;;;;;;;6030973;27;20036;-74
2024/04/16 00:06:23;;;;;;;9.90;7.30;;;;;;;;;;6004496;27;20299;-74
2024/04/16 00:09:15;;;;;;;11.15;8.02;;;;;;;;;;6032608;27;20018;-73
2024/04/16 00:12:06;;;;;;;10.93;7.85;;;;;;;;;;6032839;27;20040;-73
2024/04/16 00:14:57;;;;;;;12.57;7.28;;;;;;;;;;6032740;27;20019;-74
2024/04/16 00:17:48;;;;;;;9.27;6.55;;;;;;;;;;6004326;27;20771;-74
2024/04/16 00:20:39;;;;;;;12.27;8.35;;;;;;;;;;6032665;27;20008;-74
2024/04/16 00:23:30;;;;;;;15.18;6.97;;;;;;;;;;6032584;27;20008;-74
2024/04/16 00:26:21;;;;;;;9.98;5.93;;;;;;;;;;6032362;27;20020;-74
2024/04/16 00:29:12;;;;;;;12.68;7.28;;;;;;;;;;6032617;27;20012;-74
2024/04/16 00:32:03;;;;;;;6.82;5.75;;;;;;;;;;6032521;27;20328;-73
2024/04/16 00:34:54;;;;;;;8.80;6.22;;;;;;;;;;6032486;27;20008;-74
2024/04/16 00:37:45;;;;;;;15.80;8.63;;;;;;;;;;6032106;27;20016;-73
2024/04/16 00:40:36;;;;;;;9.20;5.95;;;;;;;;;;6032438;27;20009;-74
2024/04/16 00:43:27;;;;;;;11.75;8.85;;;;;;;;;;6003745;27;20373;-73
2024/04/16 00:46:18;;;;;;;9.13;6.45;;;;;;;;;;6003598;27;20444;-73
2024/04/16 00:49:09;;;;;;;9.70;5.63;;;;;;;;;;6003855;27;20024;-73
2024/04/16 00:52:00;;;;;;;8.45;6.25;;;;;;;;;;6003619;27;20083;-74
2024/04/16 00:54:52;;;;;;;14.10;6.90;;;;;;;;;;6030771;27;20015;-74
2024/04/16 00:57:43;;;;;;;8.65;5.95;;;;;;;;;;6032296;27;20004;-74
2024/04/16 01:00:34;;;;;;;5.32;3.80;;;;;;;;;;6032185;27;20024;-73
2024/04/16 01:03:25;;;;;;;6.68;5.15;;;;;;;;;;6032106;27;20427;-74
2024/04/16 01:06:16;;;;;;;17.88;5.50;;;;;;;;;;6031973;27;20032;-74
2024/04/16 01:09:09;;;;;;;8.30;4.60;;;;;;;;;;6031804;27;20005;-73
2024/04/16 01:12:00;;;;;;;8.10;5.10;;;;;;;;;;6032308;27;20303;-73
2024/04/16 01:14:51;;;;;;;8.82;4.68;;;;;;;;;;6032181;27;20012;-73
2024/04/16 01:17:42;;;;;;;8.32;4.70;;;;;;;;;;6031840;27;20360;-73
2024/04/16 01:20:36;;;;;;;5.35;3.42;;;;;;;;;;6031955;27;20084;-73
2024/04/16 01:23:27;;;;;;;2.95;2.35;;;;;;;;;;6003510;27;20044;-74
2024/04/16 01:26:18;;;;;;;11.02;3.55;;;;;;;;;;6031640;27;20012;-74
2024/04/16 01:29:09;;;;;;;3.95;2.60;;;;;;;;;;6031563;27;20018;-74
2024/04/16 01:32:00;;;;;;;3.70;2.53;;;;;;;;;;6032134;27;20062;-74
2024/04/16 01:34:51;;;;;;;3.47;2.67;;;;;;;;;;6031917;27;20016;-74
2024/04/16 01:37:42;;;;;;;4.22;2.67;;;;;;;;;;6002986;27;20022;-74
2024/04/16 01:40:33;;;;;;;2.33;2.13;;;;;;;;;;6031431;27;20008;-74
2024/04/16 01:43:24;;;;;;;7.55;3.03;;;;;;;;;;6031228;27;20008;-74
2024/04/16 01:46:14;;;;;;;2.50;2.22;;;;;;;;;;6031462;27;20084;-74
2024/04/16 01:49:05;;;;;;;5.00;2.28;;;;;;;;;;6031169;27;20009;-73
2024/04/16 01:51:56;;;;;;;2.22;1.88;;;;;;;;;;6031632;27;20015;-74
2024/04/16 01:54:47;;;;;;;6.82;3.78;;;;;;;;;;6031131;27;20012;-74
2024/04/16 01:57:39;;;;;;;8.38;1.83;;;;;;;;;;6031269;27;20336;-74
2024/04/16 02:00:30;;;;;;;1.42;1.13;;;;;;;;;;6031268;27;20016;-73
2024/04/16 02:03:21;;;;;;;1.90;1.38;;;;;;;;;;6034030;27;20008;-74
2024/04/16 02:06:12;;;;;;;2.03;1.73;;;;;;;;;;6034575;27;20446;-73
2024/04/16 02:09:03;;;;;;;2.28;1.45;;;;;;;;;;6034535;27;20015;-73
2024/04/16 02:11:54;;;;;;;3.20;1.50;;;;;;;;;;6034814;27;20052;-74
2024/04/16 02:14:45;;;;;;;1.77;1.15;;;;;;;;;;6034264;27;20024;-74
2024/04/16 02:17:37;;;;;;;0.70;0.60;;;;;;;;;;6034562;27;20027;-74
2024/04/16 02:20:28;;;;;;;1.58;1.30;;;;;;;;;;6034692;27;20361;-74
2024/04/16 02:23:19;;;;;;;2.65;1.38;;;;;;;;;;6034247;27;20009;-74
2024/04/16 02:26:10;;;;;;;0.70;0.70;;;;;;;;;;6034359;27;20019;-74
2024/04/16 02:29:01;;;;;;;4.20;1.58;;;;;;;;;;6034356;27;20054;-73
2024/04/16 02:31:52;;;;;;;1.85;1.23;;;;;;;;;;6034591;27;20470;-74
2024/04/16 02:34:42;;;;;;;1.30;1.20;;;;;;;;;;6034034;27;20415;-74
2024/04/16 02:37:33;;;;;;;6.70;1.95;;;;;;;;;;6034317;27;20027;-74
2024/04/16 02:40:24;;;;;;;2.80;1.05;;;;;;;;;;6034261;27;20083;-73
2024/04/16 02:43:15;;;;;;;1.67;0.80;;;;;;;;;;6033970;27;20016;-74
2024/04/16 02:46:06;;;;;;;1.77;1.65;;;;;;;;;;6034016;27;20346;-73
2024/04/16 02:48:57;;;;;;;1.35;1.23;;;;;;;;;;6034539;27;20009;-74
2024/04/16 02:51:48;;;;;;;2.08;1.83;;;;;;;;;;6034226;27;20008;-74
2024/04/16 02:54:39;;;;;;;1.25;0.95;;;;;;;;;;6034130;27;20099;-74
2024/04/16 02:57:30;;;;;;;3.60;1.60;;;;;;;;;;6033987;27;20009;-73
2024/04/16 03:00:20;;;;;;;1.15;0.70;;;;;;;;;;6033984;27;20008;-74
2024/04/16 03:03:12;;;;;;;2.10;1.42;;;;;;;;;;6033891;27;20016;-73
2024/04/16 03:06:03;;;;;;;2.15;1.23;;;;;;;;;;6033948;27;20008;-73
2024/04/16 03:08:54;;;;;;;2.60;1.42;;;;;;;;;;6034102;27;20025;-74
2024/04/16 03:11:45;;;;;;;3.13;2.03;;;;;;;;;;6033896;27;20009;-74
2024/04/16 03:14:36;;;;;;;0.68;0.45;;;;;;;;;;6032834;27;20004;-74
2024/04/16 03:17:27;;;;;;;1.80;0.80;;;;;;;;;;6033616;27;20008;-74
2024/04/16 03:20:18;;;;;;;0.65;0.65;;;;;;;;;;6033990;27;20443;-74
2024/04/16 03:23:09;;;;;;;0.60;0.60;;;;;;;;;;6033493;27;20033;-74
2024/04/16 03:26:03;;;;;;;1.00;0.90;;;;;;;;;;6034152;27;20459;-74
2024/04/16 03:28:54;;;;;;;17.30;1.25;;;;;;;;;;6033413;27;20020;-74
2024/04/16 03:31:45;;;;;;;0.68;0.63;;;;;;;;;;6033405;27;20036;-74
2024/04/16 03:34:36;;;;;;;1.48;0.90;;;;;;;;;;6033077;27;20451;-73
2024/04/16 03:37:27;;;;;;;0.77;0.55;;;;;;;;;;6032954;27;20439;-74
2024/04/16 03:40:18;;;;;;;0.35;0.35;;;;;;;;;;6032791;27;20019;-74
2024/04/16 03:43:09;;;;;;;0.85;0.50;;;;;;;;;;6033018;27;20023;-73
2024/04/16 03:45:59;;;;;;;3.40;1.30;;;;;;;;;;6033790;27;20343;-73
2024/04/16 03:48:50;;;;;;;0.68;0.68;;;;;;;;;;6033044;27;20008;-73
2024/04/16 03:51:41;;;;;;;2.53;1.15;;;;;;;;;;6032903;27;20008;-73
2024/04/16 03:54:32;;;;;;;0.60;0.60;;;;;;;;;;6004766;27;20037;-72
2024/04/16 03:57:23;;;;;;;0.65;0.50;;;;;;;;;;6032634;27;20016;-74
2024/04/16 04:03:26;;;;;;;0.95;0.60;;;;;;;;;;6032845;27;20481;-74
2024/04/16 04:06:16;;;;;;;0.60;0.60;;;;;;;;;;6032881;27;20014;-73
2024/04/16 04:09:07;;;;;;;0.60;0.60;;;;;;;;;;6032697;27;20832;-73
2024/04/16 04:11:58;;;;;;;2.47;1.02;;;;;;;;;;6033070;27;20695;-73
2024/04/16 04:14:49;;;;;;;0.70;0.50;;;;;;;;;;6032582;27;20008;-74
2024/04/16 04:17:40;;;;;;;0.38;0.30;;;;;;;;;;6032280;27;20008;-74
2024/04/16 04:20:32;;;;;;;0.73;0.73;;;;;;;;;;6032614;27;20019;-74
2024/04/16 04:23:23;;;;;;;0.68;0.55;;;;;;;;;;6032269;27;20008;-73
2024/04/16 04:26:14;;;;;;;0.88;0.40;;;;;;;;;;6002742;27;20040;-74
2024/04/16 04:29:05;;;;;;;0.50;0.50;;;;;;;;;;6032424;27;20014;-74
2024/04/16 04:31:56;;;;;;;0.40;0.40;;;;;;;;;;6032722;27;20004;-72
2024/04/16 04:34:47;;;;;;;0.47;0.47;;;;;;;;;;6032280;27;20027;-73
2024/04/16 04:37:38;;;;;;;0.30;0.30;;;;;;;;;;6032378;27;20012;-73
2024/04/16 04:40:29;;;;;;;0.13;0.13;;;;;;;;;;6032118;27;20027;-74
2024/04/16 04:43:20;;;;;;;0.82;0.50;;;;;;;;;;6031925;27;20016;-74
2024/04/16 04:46:11;;;;;;;0.25;0.25;;;;;;;;;;6031947;27;20019;-73
2024/04/16 04:49:02;;;;;;;0.60;0.47;;;;;;;;;;6032235;27;20427;-72
2024/04/16 04:51:53;;;;;;;1.38;0.38;;;;;;;;;;6032290;27;20019;-74
2024/04/16 04:54:44;;;;;;;1.08;0.57;;;;;;;;;;6031772;27;20544;-74
2024/04/16 04:57:38;;;;;;;0.45;0.32;;;;;;;;;;6032349;27;20040;-74
2024/04/16 05:00:29;;;;;;;0.10;0.10;;;;;;;;;;6032009;27;20060;-74
2024/04/16 05:03:20;;;;;;;0.52;0.30;;;;;;;;;;6031530;27;20031;-74
2024/04/16 05:06:11;;;;;;;0.20;0.20;;;;;;;;;;6031731;27;20023;-73
2024/04/16 05:09:02;;;;;;;0.22;0.20;;;;;;;;;;6032087;27;20008;-73
2024/04/16 05:11:53;;;;;;;0.10;0.10;;;;;;;;;;6003737;27;20008;-73
2024/04/16 05:14:44;;;;;;;0.30;0.30;;;;;;;;;;6031655;27;20375;-73
2024/04/16 05:17:35;;;;;;;0.20;0.20;;;;;;;;;;6031762;27;20020;-74
2024/04/16 05:20:26;;;;;;;0.20;0.20;;;;;;;;;;6031942;27;20015;-73
2024/04/16 05:23:16;;;;;;;0.13;0.13;;;;;;;;;;6031301;27;20448;-73
2024/04/16 05:26:07;;;;;;;2.97;0.55;;;;;;;;;;6031450;27;20018;-72
2024/04/16 05:28:58;;;;;;;0.20;0.20;;;;;;;;;;6032023;27;20009;-73
2024/04/16 05:31:49;;;;;;;0.10;0.10;;;;;;;;;;6031437;27;20075;-73
2024/04/16 05:34:40;;;;;;;0.20;0.20;;;;;;;;;;6031265;27;20015;-74
2024/04/16 05:37:31;;;;;;;0.60;0.50;;;;;;;;;;6002241;27;20053;-73
2024/04/16 05:40:22;;;;;;;0.10;0.10;;;;;;;;;;6031432;27;20028;-73
2024/04/16 05:43:13;;;;;;;0.43;0.28;;;;;;;;;;6031191;27;20020;-73
2024/04/16 05:46:04;;;;;;;0.38;0.38;;;;;;;;;;6002292;27;20079;-73
2024/04/16 05:48:55;;;;;;;0.20;0.20;;;;;;;;;;6002812;27;20032;-74
2024/04/16 05:51:45;;;;;;;1.25;0.75;;;;;;;;;;6031112;27;20523;-74
2024/04/16 05:54:36;;;;;;;0.10;0.10;;;;;;;;;;6031017;27;20009;-74
2024/04/16 05:57:27;;;;;;;0.40;0.40;;;;;;;;;;6030844;27;20041;-74
2024/04/16 06:00:18;;;;;;;20.58;0.85;;;;;;;;;;6030835;27;20009;-73
2024/04/16 06:03:09;;;;;;;1.10;0.55;;;;;;;;;;6002318;27;20009;-74
2024/04/16 06:06:00;;;;;;;0.20;0.20;;;;;;;;;;6002608;27;20015;-73
2024/04/16 06:08:52;;;;;;;0.30;0.30;;;;;;;;;;6030553;27;20013;-73
2024/04/16 06:11:43;;;;;;;0.38;0.38;;;;;;;;;;6030703;27;20542;-74
2024/04/16 06:14:34;;;;;;;0.70;0.65;;;;;;;;;;6030492;27;20008;-73
2024/04/16 06:17:25;;;;;;;0.90;0.63;;;;;;;;;;6030468;27;20023;-73
2024/04/16 06:20:16;;;;;;;1.25;0.90;;;;;;;;;;6030526;27;20455;-73
2024/04/16 06:23:07;;;;;;;17.02;1.98;;;;;;;;;;6030393;27;20041;-73
2024/04/16 06:25:58;;;;;;;2.75;1.75;;;;;;;;;;6030869;27;20009;-74
2024/04/16 06:28:49;;;;;;;0.50;0.32;;;;;;;;;;6030225;27;20008;-73
2024/04/16 06:31:40;;;;;;;0.28;0.28;;;;;;;;;;6030114;27;20008;-73
2024/04/16 06:34:31;;;;;;;0.50;0.50;;;;;;;;;;6030177;27;20020;-73
2024/04/16 06:37:22;;;;;;;3.50;1.10;;;;;;;;;;6030074;27;20084;-73
2024/04/16 06:40:13;;;;;;;1.65;1.15;;;;;;;;;;6001559;27;20008;-73
2024/04/16 06:43:04;;;;;;;0.30;0.30;;;;;;;;;;6030300;27;20008;-73
2024/04/16 06:45:58;;;;;;;0.45;0.45;;;;;;;;;;6030603;27;20058;-74
2024/04/16 06:48:50;;;;;;;2.70;1.08;;;;;;;;;;6030696;27;20016;-74
2024/04/16 06:51:57;;;;;;;;;;;;;;;;;;6034400;27;20044;-73
2024/04/16 06:54:50;;;;;;;3.25;1.33;;;;;;;;;;6033914;27;19946;-74
2024/04/16 06:57:41;;;;;;;1.83;0.75;;;;;;;;;;6033833;27;20044;-73
2024/04/16 07:00:32;;;;;;;0.10;0.10;;;;;;;;;;6033615;27;20009;-73
2024/04/16 07:03:23;;;;;;;2.17;0.65;;;;;;;;;;6033280;27;20020;-74
2024/04/16 07:06:14;;;;;;;0.40;0.40;;;;;;;;;;6033403;27;20447;-73
2024/04/16 07:09:05;;;;;;;1.02;0.95;;;;;;;;;;6033668;27;20041;-73
2024/04/16 07:11:58;;;;;;;3.60;0.40;;;;;;;;;;6006395;27;20328;-73
2024/04/16 07:14:49;;;;;;;1.67;0.95;;;;;;;;;;6004891;27;20027;-74
2024/04/16 07:17:40;;;;;;;0.88;0.63;;;;;;;;;;6033288;27;20399;-74
2024/04/16 07:20:32;;;;;;;1.25;0.43;;;;;;;;;;6033179;27;20503;-74
2024/04/16 07:23:26;;;;;;;2.20;0.82;;;;;;;;;;6032944;27;20059;-73
2024/04/16 07:26:17;;;;;;;4.55;3.17;;;;;;;;;;6033247;27;20023;-74
2024/04/16 07:29:09;;;;;;;3.25;1.05;;;;;;;;;;6033472;27;20092;-74
2024/04/16 07:32:00;;;;;;;1.42;1.23;;;;;;;;;;6033827;27;20036;-74
2024/04/16 07:34:51;;;;;;;0.20;0.20;;;;;;;;;;6033404;27;20012;-73
2024/04/16 07:37:47;;;;;;;0.30;0.22;;;;;;;;;;6033607;27;20466;-74
2024/04/16 07:40:38;;;;;;;0.52;0.40;;;;;;;;;;6032880;27;20008;-73
2024/04/16 07:43:29;;;;;;;0.43;0.43;;;;;;;;;;6033051;27;20008;-74
2024/04/16 07:46:20;;;;;;;7.38;1.42;;;;;;;;;;6032695;27;20108;-73
2024/04/16 07:49:11;;;;;;;1.27;0.95;;;;;;;;;;6033065;27;20008;-73
2024/04/16 07:52:02;;;;;;;1.08;0.50;;;;;;;;;;6032949;27;20019;-73
2024/04/16 07:54:54;;;;;;;0.20;0.20;;;;;;;;;;6032952;27;20167;-73
2024/04/16 07:57:45;;;;;;;0.45;0.32;;;;;;;;;;6032803;27;20008;-73
2024/04/16 08:00:37;;;;;;;0.43;0.30;;;;;;;;;;6023408;27;20057;-73
2024/04/16 08:03:28;;;;;;;0.45;0.45;;;;;;;;;;6032527;27;20028;-73
2024/04/16 08:06:19;;;;;;;0.75;0.73;;;;;;;;;;6032702;27;20020;-73
2024/04/16 08:09:10;;;;;;;0.22;0.22;;;;;;;;;;6032468;27;20009;-72
2024/04/16 08:12:00;;;;;;;0.43;0.32;;;;;;;;;;6033108;27;20046;-73
2024/04/16 08:14:51;;;;;;;0.40;0.40;;;;;;;;;;6032363;27;20005;-73
2024/04/16 08:17:42;;;;;;;0.70;0.70;;;;;;;;;;6032460;27;20018;-73
2024/04/16 08:20:33;;;;;;;0.63;0.20;;;;;;;;;;6032113;27;20009;-73
2024/04/16 08:23:24;;;;;;;0.95;0.75;;;;;;;;;;6032295;27;20044;-73
2024/04/16 08:26:15;;;;;;;0.50;0.45;;;;;;;;;;6032100;27;20771;-72
2024/04/16 08:29:06;;;;;;;3.03;2.15;;;;;;;;;;6032305;27;20020;-73
2024/04/16 08:31:57;;;;;;;0.82;0.43;;;;;;;;;;6032795;27;20009;-72
2024/04/16 08:34:48;;;;;;;0.10;0.10;;;;;;;;;;6032070;27;20012;-73
2024/04/16 08:37:39;;;;;;;0.98;0.47;;;;;;;;;;6032090;27;20016;-73
2024/04/16 08:40:30;;;;;;;0.55;0.47;;;;;;;;;;6031830;27;20009;-72
2024/04/16 08:43:21;;;;;;;0.35;0.35;;;;;;;;;;6003813;27;20041;-73
2024/04/16 08:46:13;;;;;;;0.93;0.50;;;;;;;;;;6032083;27;20019;-73
2024/04/16 08:49:04;;;;;;;1.35;0.90;;;;;;;;;;6003616;27;20416;-72
2024/04/16 08:51:57;;;;;;;0.63;0.63;;;;;;;;;;6003676;27;20016;-72
2024/04/16 08:54:50;;;;;;;3.72;0.80;;;;;;;;;;6032001;27;20060;-73
2024/04/16 08:57:41;;;;;;;0.25;0.25;;;;;;;;;;6003253;27;20022;-73
2024/04/16 09:00:32;;;;;;;0.40;0.40;;;;;;;;;;6030149;27;20032;-73
2024/04/16 09:03:27;;;;;;;0.60;0.60;;;;;;;;;;6031633;27;20016;-72
2024/04/16 09:06:18;;;;;;;2.15;0.80;;;;;;;;;;6031850;27;20033;-72
2024/04/16 09:09:09;;;;;;;0.82;0.60;;;;;;;;;;6031590;27;20008;-72
2024/04/16 09:12:03;;;;;;;1.13;0.60;;;;;;;;;;6002427;27;20022;-72
2024/04/16 09:14:53;;;;;;;0.40;0.40;;;;;;;;;;6032109;27;20049;-73
2024/04/16 09:17:47;;;;;;;0.22;0.22;;;;;;;;;;6031791;27;20020;-73
2024/04/16 09:20:45;;;;;;;1.50;1.08;;;;;;;;;;6031576;27;20009;-73
2024/04/16 09:23:36;;;;;;;0.25;0.25;;;;;;;;;;6031590;27;20008;-73
2024/04/16 09:26:27;;;;;;;0.35;0.35;;;;;;;;;;6031242;27;20048;-73
2024/04/16 09:29:25;;;;;;;3.75;0.22;;;;;;;;;;6031461;27;20023;-72
2024/04/16 09:32:17;;;;;;;0.43;0.38;;;;;;;;;;6031306;27;20022;-71
2024/04/16 09:35:08;;;;;;;0.28;0.28;;;;;;;;;;6002853;27;20012;-73
2024/04/16 09:38:00;;;;;;;0.80;0.73;;;;;;;;;;6031925;27;20353;-72
2024/04/16 09:40:52;;;;;;;0.45;0.45;;;;;;;;;;6002783;27;20358;-73
2024/04/16 09:43:43;;;;;;;0.60;0.60;;;;;;;;;;6031440;27;20310;-72
2024/04/16 09:46:35;;;;;;;1.05;1.02;;;;;;;;;;6031039;27;20009;-72
2024/04/16 09:49:26;;;;;;;2.80;1.20;;;;;;;;;;5976297;27;20020;-72
2024/04/16 09:52:33;;;;;;;2.13;1.25;;;;;;;;;;6005773;27;20103;-72
2024/04/16 09:55:25;;;;;;;2.90;0.90;;;;;;;;;;6002868;27;20651;-72
2024/04/16 09:58:17;;;;;;;1.48;1.10;;;;;;;;;;6030998;27;20358;-73
2024/04/16 10:01:09;;;;;;;0.95;0.90;;;;;;;;;;6030854;27;20084;-73
2024/04/16 10:04:01;;;;;;;2.50;1.10;;;;;;;;;;6031077;27;20456;-73
2024/04/16 10:06:52;;;;;;;0.82;0.80;;;;;;;;;;6031077;27;20008;-72
2024/04/16 10:09:43;;;;;;;0.85;0.68;;;;;;;;;;6030937;27;20039;-72
2024/04/16 10:12:34;;;;;;;1.30;0.98;;;;;;;;;;6030659;27;20008;-73
2024/04/16 10:15:28;;;;;;;2.78;0.60;;;;;;;;;;6030573;27;20089;-72
2024/04/16 10:18:20;;;;;;;0.68;0.68;;;;;;;;;;6030662;27;20511;-73
2024/04/16 10:21:25;;;;;;;0.60;0.50;;;;;;;;;;6030578;27;20102;-73
2024/04/16 10:24:17;;;;;;;0.30;0.30;;;;;;;;;;6032910;27;20122;-72
2024/04/16 10:27:09;;;;;;;5.97;1.20;;;;;;;;;;6034070;27;20332;-73
2024/04/16 10:30:11;;;;;;;0.88;0.55;;;;;;;;;;6034826;27;20018;-72
2024/04/16 10:33:04;;;;;;;0.90;0.50;;;;;;;;;;6032303;27;20012;-72
2024/04/16 10:35:56;;;;;;;0.30;0.30;;;;;;;;;;6034192;27;20416;-73
2024/04/16 10:38:47;;;;;;;1.95;1.23;;;;;;;;;;6034188;27;20361;-73
2024/04/16 10:41:38;;;;;;;4.78;2.35;;;;;;;;;;6033952;27;20008;-72
2024/04/16 10:44:30;;;;;;;2.22;0.73;;;;;;;;;;6034059;27;20016;-72
2024/04/16 10:47:25;;;;;;;0.40;0.40;;;;;;;;;;6034010;27;20451;-72
2024/04/16 10:50:16;;;;;;;2.00;0.88;;;;;;;;;;6005900;27;20009;-72
2024/04/16 10:53:14;;;;;;;3.55;1.50;;;;;;;;;;6033513;27;20008;-71
2024/04/16 10:56:06;;;;;;;0.55;0.55;;;;;;;;;;6033835;27;20005;-72
2024/04/16 10:58:57;;;;;;;1.35;0.68;;;;;;;;;;6034415;27;20491;-73
2024/04/16 11:01:48;;;;;;;2.38;0.95;;;;;;;;;;6033817;27;20009;-73
2024/04/16 11:04:39;;;;;;;0.65;0.45;;;;;;;;;;6033751;27;20124;-72
2024/04/16 11:07:32;;;;;;;3.28;0.38;;;;;;;;;;6033608;27;20020;-73
2024/04/16 11:10:23;;;;;;;0.90;0.55;;;;;;;;;;6005683;27;20483;-73
2024/04/16 11:13:18;;;;;;;0.75;0.45;;;;;;;;;;6033528;27;20004;-72
2024/04/16 11:16:09;;;;;;;0.52;0.52;;;;;;;;;;6033828;27;20425;-72
2024/04/16 11:19:01;;;;;;;0.40;0.40;;;;;;;;;;6034238;27;20008;-73
2024/04/16 11:21:52;;;;;;;1.08;0.88;;;;;;;;;;6033861;27;20016;-73
2024/04/16 11:24:43;;;;;;;0.73;0.60;;;;;;;;;;6005332;27;20346;-73
2024/04/16 11:27:37;;;;;;;1.30;0.65;;;;;;;;;;6005175;27;20023;-73
2024/04/16 11:30:28;;;;;;;0.98;0.45;;;;;;;;;;6033584;27;20012;-73
2024/04/16 11:33:19;;;;;;;1.10;0.80;;;;;;;;;;6005002;27;20012;-73
2024/04/16 11:36:24;;;;;;;1.92;0.85;;;;;;;;;;6032540;27;20004;-72
2024/04/16 11:39:14;;;;;;;1.08;0.98;;;;;;;;;;6033072;27;20036;-73
2024/04/16 11:42:06;;;;;;;1.20;1.00;;;;;;;;;;6033068;27;20015;-72
2024/04/16 11:44:59;;;;;;;2.88;1.52;;;;;;;;;;6033384;27;20347;-74
2024/04/16 11:47:50;;;;;;;1.25;0.88;;;;;;;;;;6033050;27;20008;-73
2024/04/16 11:50:43;;;;;;;0.60;0.60;;;;;;;;;;6032851;27;20600;-73
2024/04/16 11:53:34;;;;;;;1.77;1.40;;;;;;;;;;6004470;27;20036;-73
2024/04/16 11:56:25;;;;;;;0.80;0.70;;;;;;;;;;6032752;27;20008;-73
2024/04/16 11:59:16;;;;;;;0.77;0.50;;;;;;;;;;6032567;27;20019;-72
2024/04/16 12:02:07;;;;;;;0.40;0.40;;;;;;;;;;6033019;27;20469;-72
2024/04/16 12:05:02;;;;;;;10.73;0.68;;;;;;;;;;6005553;27;20009;-72
2024/04/16 12:07:53;;;;;;;10.73;4.47;;;;;;;;;;6033168;27;20021;-73
2024/04/16 12:10:44;;;;;;;11.13;6.28;;;;;;;;;;6032608;27;20356;-73
2024/04/16 12:13:35;;;;;;;36.55;16.30;;;;;;;;;;6032965;27;20016;-73
2024/04/16 12:16:26;;;;;;;13.93;6.88;;;;;;;;;;6032505;27;20008;-72
2024/04/16 12:19:17;;;;;;;21.10;4.05;;;;;;;;;;6004029;27;20396;-74
2024/04/16 12:22:09;;;;;;;14.32;8.55;;;;;;;;;;6032549;27;20020;-72
2024/04/16 12:25:00;;;;;;;9.77;5.03;;;;;;;;;;6033046;27;20008;-73
2024/04/16 12:27:53;;;;;;;3.25;2.13;;;;;;;;;;6032799;27;20435;-73
2024/04/16 12:30:44;;;;;;;3.08;2.60;;;;;;;;;;6032282;27;20036;-73
2024/04/16 12:33:35;;;;;;;3.28;2.80;;;;;;;;;;6032473;27;20008;-73
2024/04/16 12:36:27;;;;;;;3.55;2.58;;;;;;;;;;6032435;27;20031;-73
2024/04/16 12:39:17;;;;;;;1.17;1.02;;;;;;;;;;6032621;27;20005;-74
2024/04/16 12:42:08;;;;;;;3.65;2.35;;;;;;;;;;6032395;27;20044;-72
2024/04/16 12:44:59;;;;;;;3.65;2.67;;;;;;;;;;6033216;27;20008;-73
2024/04/16 12:47:50;;;;;;;1.85;1.70;;;;;;;;;;6031391;27;20012;-72
2024/04/16 12:50:41;;;;;;;6.32;3.38;;;;;;;;;;6003883;27;20004;-73
2024/04/16 12:53:32;;;;;;;4.57;1.95;;;;;;;;;;6031949;27;20008;-72
2024/04/16 12:56:23;;;;;;;2.30;1.40;;;;;;;;;;6032314;27;20019;-73
2024/04/16 12:59:16;;;;;;;1.52;0.98;;;;;;;;;;6032281;27;20048;-73
2024/04/16 13:02:07;;;;;;;2.58;1.42;;;;;;;;;;6032009;27;20009;-73
2024/04/16 13:04:58;;;;;;;1.17;1.08;;;;;;;;;;6032524;27;20020;-73
2024/04/16 13:07:49;;;;;;;2.05;1.38;;;;;;;;;;6003452;27;20008;-73
2024/04/16 13:10:40;;;;;;;4.30;3.05;;;;;;;;;;6032043;27;20008;-73
2024/04/16 13:13:31;;;;;;;1.10;0.95;;;;;;;;;;6032049;27;20455;-73
2024/04/16 13:16:23;;;;;;;1.40;0.82;;;;;;;;;;6032072;27;20009;-74
2024/04/16 13:19:14;;;;;;;2.05;1.08;;;;;;;;;;6031945;27;20412;-73
2024/04/16 13:22:05;;;;;;;0.88;0.77;;;;;;;;;;6032032;27;20411;-73
2024/04/16 13:24:56;;;;;;;2.55;1.00;;;;;;;;;;6032157;27;20008;-73
2024/04/16 13:27:46;;;;;;;1.55;0.75;;;;;;;;;;6003165;27;20019;-73
2024/04/16 13:30:37;;;;;;;0.80;0.60;;;;;;;;;;6031468;27;20012;-73
2024/04/16 13:33:30;;;;;;;1.35;0.73;;;;;;;;;;6031605;27;20032;-73
2024/04/16 13:36:21;;;;;;;2.28;1.20;;;;;;;;;;6031238;27;20419;-73
2024/04/16 13:39:12;;;;;;;1.02;0.90;;;;;;;;;;6003237;27;20008;-72
2024/04/16 13:42:03;;;;;;;2.42;2.10;;;;;;;;;;6031710;27;20016;-73
2024/04/16 13:44:54;;;;;;;1.38;1.13;;;;;;;;;;6031752;27;20055;-73
2024/04/16 13:47:45;;;;;;;1.25;1.15;;;;;;;;;;6031354;27;20027;-74
2024/04/16 13:50:42;;;;;;;0.95;0.95;;;;;;;;;;6031482;27;20008;-73
2024/04/16 13:53:40;;;;;;;5.70;1.85;;;;;;;;;;6031454;27;20012;-73
2024/04/16 13:56:32;;;;;;;6.40;1.20;;;;;;;;;;6031120;27;20008;-73
2024/04/16 13:59:22;;;;;;;2.85;0.73;;;;;;;;;;6038021;27;20487;-73
2024/04/16 14:02:13;;;;;;;6.32;1.55;;;;;;;;;;6039159;27;20041;-73
2024/04/16 14:05:04;;;;;;;1.98;0.95;;;;;;;;;;6039193;27;20019;-73
2024/04/16 14:07:55;;;;;;;0.43;0.43;;;;;;;;;;6039437;27;20087;-73
2024/04/16 14:10:46;;;;;;;4.35;0.75;;;;;;;;;;6038985;27;20041;-73
2024/04/16 14:13:37;;;;;;;1.95;1.58;;;;;;;;;;6039131;27;20020;-73
2024/04/16 14:16:28;;;;;;;11.00;1.17;;;;;;;;;;6010637;27;20020;-73
2024/04/16 14:19:19;;;;;;;1.60;0.80;;;;;;;;;;6038826;27;20009;-72
2024/04/16 14:22:11;;;;;;;0.75;0.73;;;;;;;;;;6038951;27;20088;-71
2024/04/16 14:25:02;;;;;;;0.80;0.60;;;;;;;;;;6038829;27;20017;-72
2024/04/16 14:27:54;;;;;;;0.63;0.63;;;;;;;;;;6039221;27;20040;-73
2024/04/16 14:30:45;;;;;;;0.85;0.80;;;;;;;;;;6038881;27;20040;-72
2024/04/16 14:33:36;;;;;;;1.05;0.75;;;;;;;;;;6038647;27;20008;-73
2024/04/16 14:36:27;;;;;;;0.30;0.30;;;;;;;;;;6038688;27;20455;-73
2024/04/16 14:39:18;;;;;;;2.60;0.63;;;;;;;;;;6038502;27;20012;-72
2024/04/16 14:42:09;;;;;;;2.58;0.98;;;;;;;;;;6038374;27;20008;-72
2024/04/16 14:45:00;;;;;;;2.45;1.20;;;;;;;;;;6038988;27;20026;-74
2024/04/16 14:47:51;;;;;;;1.42;0.85;;;;;;;;;;6038822;27;20024;-73
2024/04/16 14:50:42;;;;;;;4.55;1.10;;;;;;;;;;6038276;27;20426;-74
2024/04/16 14:53:33;;;;;;;0.70;0.70;;;;;;;;;;6038137;27;20015;-73
2024/04/16 14:56:24;;;;;;;0.82;0.77;;;;;;;;;;6038201;27;20015;-73
2024/04/16 14:59:15;;;;;;;1.58;0.73;;;;;;;;;;6038411;27;20376;-73
2024/04/16 15:02:06;;;;;;;0.73;0.73;;;;;;;;;;6026771;27;20017;-73
2024/04/16 15:04:57;;;;;;;1.08;0.80;;;;;;;;;;6038314;27;20009;-73
2024/04/16 15:07:48;;;;;;;2.42;1.70;;;;;;;;;;6009569;27;20016;-73
2024/04/16 15:10:39;;;;;;;5.68;2.30;;;;;;;;;;6033356;27;20008;-73
2024/04/16 15:13:30;;;;;;;5.32;3.15;;;;;;;;;;6033592;27;20445;-73
2024/04/16 15:16:20;;;;;;;0.60;0.60;;;;;;;;;;6033727;27;20340;-72
2024/04/16 15:19:11;;;;;;;0.50;0.50;;;;;;;;;;6033670;27;20009;-72
2024/04/16 15:22:02;;;;;;;1.58;1.00;;;;;;;;;;6005150;27;20386;-72
2024/04/16 15:24:53;;;;;;;1.00;0.65;;;;;;;;;;6033819;27;20008;-72
2024/04/16 15:27:44;;;;;;;3.60;1.23;;;;;;;;;;6033385;27;20332;-71
2024/04/16 15:30:36;;;;;;;1.48;0.88;;;;;;;;;;6033425;27;20071;-71
2024/04/16 15:33:27;;;;;;;1.27;1.17;;;;;;;;;;6033197;27;20008;-71
2024/04/16 15:36:18;;;;;;;1.10;1.00;;;;;;;;;;6033127;27;20008;-71
2024/04/16 15:39:08;;;;;;;2.70;1.35;;;;;;;;;;6033268;27;20004;-71
2024/04/16 15:41:59;;;;;;;4.72;2.83;;;;;;;;;;6033978;27;20440;-72
2024/04/16 15:44:50;;;;;;;3.65;3.00;;;;;;;;;;6033190;27;20048;-71
2024/04/16 15:47:41;;;;;;;1.70;1.20;;;;;;;;;;6033042;27;20051;-72
2024/04/16 15:50:32;;;;;;;5.10;3.88;;;;;;;;;;6032836;27;20012;-71
2024/04/16 15:53:23;;;;;;;8.73;4.63;;;;;;;;;;6032759;27;20338;-72
2024/04/16 15:56:14;;;;;;;4.25;2.85;;;;;;;;;;6032581;27;20019;-72
2024/04/16 15:59:05;;;;;;;7.82;5.10;;;;;;;;;;6032597;27;20521;-72
2024/04/16 16:01:56;;;;;;;9.40;5.15;;;;;;;;;;6033382;27;20350;-73
2024/04/16 16:04:47;;;;;;;4.75;3.25;;;;;;;;;;6032603;27;20009;-73
2024/04/16 16:07:38;;;;;;;4.97;3.83;;;;;;;;;;6032552;27;20419;-72
2024/04/16 16:10:32;;;;;;;8.45;4.40;;;;;;;;;;6032274;27;20024;-72
2024/04/16 16:13:23;;;;;;;6.15;3.47;;;;;;;;;;6032839;27;20009;-72
2024/04/16 16:16:14;;;;;;;5.25;2.78;;;;;;;;;;6003846;27;20008;-72
2024/04/16 16:19:05;;;;;;;5.88;2.63;;;;;;;;;;6032282;27;20008;-72
2024/04/16 16:21:56;;;;;;;12.60;5.07;;;;;;;;;;6032575;27;20483;-72
2024/04/16 16:24:48;;;;;;;5.47;3.28;;;;;;;;;;6003957;27;20048;-72
2024/04/16 16:27:39;;;;;;;3.85;2.17;;;;;;;;;;6030680;27;20037;-72
2024/04/16 16:30:30;;;;;;;1.48;1.02;;;;;;;;;;6032138;27;20040;-72
2024/04/16 16:33:20;;;;;;;1.17;0.95;;;;;;;;;;6032433;27;25931;-72
2024/04/16 16:36:11;;;;;;;0.80;0.80;;;;;;;;;;6003946;27;20088;-73
2024/04/16 16:39:03;;;;;;;1.20;1.10;;;;;;;;;;6032131;27;20022;-72
2024/04/16 16:41:57;;;;;;;1.80;1.55;;;;;;;;;;6032637;27;20018;-73
2024/04/16 16:44:48;;;;;;;11.02;1.85;;;;;;;;;;6032323;27;20031;-72
2024/04/16 16:47:39;;;;;;;1.65;1.25;;;;;;;;;;6032216;27;20036;-73
2024/04/16 16:50:30;;;;;;;5.07;2.15;;;;;;;;;;6032032;27;20023;-73
2024/04/16 16:53:21;;;;;;;1.95;1.25;;;;;;;;;;6031812;27;20034;-73
2024/04/16 16:56:11;;;;;;;3.08;1.42;;;;;;;;;;6031963;27;20023;-72
2024/04/16 16:59:02;;;;;;;2.30;1.40;;;;;;;;;;6031826;27;20008;-73
2024/04/16 17:01:53;;;;;;;5.32;3.97;;;;;;;;;;6032289;27;20019;-73
2024/04/16 17:04:45;;;;;;;8.98;5.53;;;;;;;;;;6031719;27;20369;-73
2024/04/16 17:07:35;;;;;;;2.35;1.92;;;;;;;;;;6031926;27;20009;-72
2024/04/16 17:10:26;;;;;;;6.13;4.30;;;;;;;;;;6031804;27;20556;-73